sensor_id;sensor_type;location;lat;lon;timestamp;pressure;altitude;pressure_sealevel;temperature;humidity
21086;BME280;34247;50.064;19.970;2023-02-12T00:00:03;100493.88;;;5.63;100.00
21086;BME280;34247;50.064;19.970;2023-02-12T00:01:25;100494.97;;;5.56;100.00
21086;BME280;34247;50.064;19.970;2023-02-12T00:02:39;100496.56;;;5.61;100.00
21086;BME280;34247;50.064;19.970;2023-02-12T00:03:49;100500.25;;;5.56;100.00
21086;BME280;34247;50.064;19.970;2023-02-12T00:05:01;100500.38;;;5.51;100.00
21086;BME280;34247;50.064;19.970;2023-02-12T00:06:14;100494.09;;;5.55;100.00
21086;BME280;34247;50.064;19.970;2023-02-12T00:07:21;100493.41;;;5.48;100.00
21086;BME280;34247;50.064;19.970;2023-02-12T00:08:26;100501.19;;;5.53;100.00
21086;BME280;34247;50.064;19.970;2023-02-12T00:09:31;100492.38;;;5.54;100.00
21086;BME280;34247;50.064;19.970;2023-02-12T00:10:40;100496.78;;;5.53;100.00
21086;BME280;34247;50.064;19.970;2023-02-12T00:11:45;100494.22;;;5.52;100.00
21086;BME280;34247;50.064;19.970;2023-02-12T00:12:53;100490.78;;;5.48;100.00
21086;BME280;34247;50.064;19.970;2023-02-12T00:14:01;100491.63;;;5.50;100.00
21086;BME280;34247;50.064;19.970;2023-02-12T00:15:32;100493.34;;;5.51;100.00
21086;BME280;34247;50.064;19.970;2023-02-12T00:16:38;100495.94;;;5.53;100.00
21086;BME280;34247;50.064;19.970;2023-02-12T00:17:44;100502.16;;;5.50;100.00
21086;BME280;34247;50.064;19.970;2023-02-12T00:18:55;100487.38;;;5.45;100.00
21086;BME280;34247;50.064;19.970;2023-02-12T00:19:59;100492.78;;;5.40;100.00
21086;BME280;34247;50.064;19.970;2023-02-12T00:21:11;100499.81;;;5.40;100.00
21086;BME280;34247;50.064;19.970;2023-02-12T00:22:19;100502.31;;;5.44;100.00
21086;BME280;34247;50.064;19.970;2023-02-12T00:23:23;100506.72;;;5.44;100.00
21086;BME280;34247;50.064;19.970;2023-02-12T00:24:30;100496.53;;;5.32;100.00
21086;BME280;34247;50.064;19.970;2023-02-12T00:25:43;100500.78;;;5.37;100.00
21086;BME280;34247;50.064;19.970;2023-02-12T00:26:47;100506.72;;;5.44;100.00
21086;BME280;34247;50.064;19.970;2023-02-12T00:27:53;100500.56;;;5.45;100.00
21086;BME280;34247;50.064;19.970;2023-02-12T00:28:59;100506.63;;;5.47;100.00
21086;BME280;34247;50.064;19.970;2023-02-12T00:30:26;100496.06;;;5.48;100.00
21086;BME280;34247;50.064;19.970;2023-02-12T00:31:30;100503.03;;;5.51;100.00
21086;BME280;34247;50.064;19.970;2023-02-12T00:32:35;100504.78;;;5.50;100.00
21086;BME280;34247;50.064;19.970;2023-02-12T00:33:40;100495.19;;;5.48;100.00
21086;BME280;34247;50.064;19.970;2023-02-12T00:34:46;100499.53;;;5.49;100.00
21086;BME280;34247;50.064;19.970;2023-02-12T00:35:56;100501.38;;;5.47;100.00
21086;BME280;34247;50.064;19.970;2023-02-12T00:37:01;100494.44;;;5.44;100.00
21086;BME280;34247;50.064;19.970;2023-02-12T00:38:05;100499.66;;;5.46;100.00
21086;BME280;34247;50.064;19.970;2023-02-12T00:39:10;100499.53;;;5.49;100.00
21086;BME280;34247;50.064;19.970;2023-02-12T00:40:14;100499.72;;;5.43;100.00
21086;BME280;34247;50.064;19.970;2023-02-12T00:41:19;100498.78;;;5.45;100.00
21086;BME280;34247;50.064;19.970;2023-02-12T00:42:23;100503.31;;;5.40;100.00
21086;BME280;34247;50.064;19.970;2023-02-12T00:43:27;100504.97;;;5.43;100.00
21086;BME280;34247;50.064;19.970;2023-02-12T00:44:31;100509.38;;;5.42;100.00
21086;BME280;34247;50.064;19.970;2023-02-12T00:45:35;100501.47;;;5.42;100.00
21086;BME280;34247;50.064;19.970;2023-02-12T00:46:40;100509.31;;;5.45;100.00
21086;BME280;34247;50.064;19.970;2023-02-12T00:47:44;100507.44;;;5.49;100.00
21086;BME280;34247;50.064;19.970;2023-02-12T00:48:48;100509.22;;;5.48;100.00
21086;BME280;34247;50.064;19.970;2023-02-12T00:49:52;100516.16;;;5.52;100.00
21086;BME280;34247;50.064;19.970;2023-02-12T00:50:56;100506.47;;;5.53;100.00
21086;BME280;34247;50.064;19.970;2023-02-12T00:52:02;100507.28;;;5.55;100.00
21086;BME280;34247;50.064;19.970;2023-02-12T00:53:08;100506.47;;;5.53;100.00
21086;BME280;34247;50.064;19.970;2023-02-12T00:54:12;100509.16;;;5.50;100.00
21086;BME280;34247;50.064;19.970;2023-02-12T00:55:17;100515.44;;;5.46;100.00
21086;BME280;34247;50.064;19.970;2023-02-12T00:56:22;100510.25;;;5.43;100.00
21086;BME280;34247;50.064;19.970;2023-02-12T00:57:25;100510.25;;;5.43;100.00
21086;BME280;34247;50.064;19.970;2023-02-12T00:58:29;100511.91;;;5.47;100.00
21086;BME280;34247;50.064;19.970;2023-02-12T00:59:33;100522.34;;;5.50;100.00
21086;BME280;34247;50.064;19.970;2023-02-12T01:00:43;100510.94;;;5.49;100.00
21086;BME280;34247;50.064;19.970;2023-02-12T01:01:47;100510.94;;;5.49;100.00
21086;BME280;34247;50.064;19.970;2023-02-12T01:02:51;100510.00;;;5.52;100.00
21086;BME280;34247;50.064;19.970;2023-02-12T01:03:56;100517.06;;;5.50;100.00
21086;BME280;34247;50.064;19.970;2023-02-12T01:05:00;100515.44;;;5.46;100.00
21086;BME280;34247;50.064;19.970;2023-02-12T01:06:07;100519.00;;;5.45;100.00
21086;BME280;34247;50.064;19.970;2023-02-12T01:07:12;100523.25;;;5.49;100.00
21086;BME280;34247;50.064;19.970;2023-02-12T01:08:16;100518.91;;;5.48;100.00
21086;BME280;34247;50.064;19.970;2023-02-12T01:09:20;100520.63;;;5.49;100.00
21086;BME280;34247;50.064;19.970;2023-02-12T01:10:24;100518.81;;;5.51;100.00
21086;BME280;34247;50.064;19.970;2023-02-12T01:11:28;100520.56;;;5.52;100.00
21086;BME280;34247;50.064;19.970;2023-02-12T01:12:32;100524.09;;;5.51;100.00
21086;BME280;34247;50.064;19.970;2023-02-12T01:13:36;100527.53;;;5.53;100.00
21086;BME280;34247;50.064;19.970;2023-02-12T01:14:39;100527.53;;;5.53;100.00
21086;BME280;34247;50.064;19.970;2023-02-12T01:15:43;100517.06;;;5.51;100.00
21086;BME280;34247;50.064;19.970;2023-02-12T01:16:47;100524.00;;;5.54;100.00
21086;BME280;34247;50.064;19.970;2023-02-12T01:17:52;100518.72;;;5.54;100.00
21086;BME280;34247;50.064;19.970;2023-02-12T01:18:56;100520.56;;;5.52;100.00
21086;BME280;34247;50.064;19.970;2023-02-12T01:20:00;100512.66;;;5.52;100.00
21086;BME280;34247;50.064;19.970;2023-02-12T01:21:21;100528.34;;;5.55;100.00
21086;BME280;34247;50.064;19.970;2023-02-12T01:22:25;100529.25;;;5.54;100.00
21086;BME280;34247;50.064;19.970;2023-02-12T01:23:29;100530.13;;;5.54;100.00
21086;BME280;34247;50.064;19.970;2023-02-12T01:24:33;100533.78;;;5.49;100.00
21086;BME280;34247;50.064;19.970;2023-02-12T01:25:37;100534.66;;;5.49;100.00
21086;BME280;34247;50.064;19.970;2023-02-12T01:26:42;100541.69;;;5.49;100.00
21086;BME280;34247;50.064;19.970;2023-02-12T01:27:47;100538.22;;;5.47;100.00
21086;BME280;34247;50.064;19.970;2023-02-12T01:28:55;100543.47;;;5.48;100.00
21086;BME280;34247;50.064;19.970;2023-02-12T01:30:00;100552.22;;;5.49;100.00
21086;BME280;34247;50.064;19.970;2023-02-12T01:31:13;100537.16;;;5.54;100.00
21086;BME280;34247;50.064;19.970;2023-02-12T01:32:17;100538.97;;;5.52;100.00
21086;BME280;34247;50.064;19.970;2023-02-12T01:33:21;100546.78;;;5.55;100.00
21086;BME280;34247;50.064;19.970;2023-02-12T01:34:25;100539.78;;;5.54;100.00
21086;BME280;34247;50.064;19.970;2023-02-12T01:35:30;100539.91;;;5.51;100.00
21086;BME280;34247;50.064;19.970;2023-02-12T01:36:34;100546.03;;;5.51;100.00
21086;BME280;34247;50.064;19.970;2023-02-12T01:37:39;100552.97;;;5.54;100.00
21086;BME280;34247;50.064;19.970;2023-02-12T01:38:43;100545.13;;;5.52;100.00
21086;BME280;34247;50.064;19.970;2023-02-12T01:39:47;100547.69;;;5.54;100.00
21086;BME280;34247;50.064;19.970;2023-02-12T01:40:51;100552.91;;;5.56;100.00
21086;BME280;34247;50.064;19.970;2023-02-12T01:41:55;100553.78;;;5.56;100.00
21086;BME280;34247;50.064;19.970;2023-02-12T01:43:02;100552.88;;;5.57;100.00
21086;BME280;34247;50.064;19.970;2023-02-12T01:44:19;100554.63;;;5.58;100.00
21086;BME280;34247;50.064;19.970;2023-02-12T01:46:41;100552.84;;;5.59;100.00
21086;BME280;34247;50.064;19.970;2023-02-12T01:47:46;100542.31;;;5.59;100.00
21086;BME280;34247;50.064;19.970;2023-02-12T01:48:50;100553.72;;;5.58;100.00
21086;BME280;34247;50.064;19.970;2023-02-12T01:49:55;100550.28;;;5.56;100.00
21086;BME280;34247;50.064;19.970;2023-02-12T01:51:03;100551.09;;;5.58;100.00
21086;BME280;34247;50.064;19.970;2023-02-12T01:52:35;100553.72;;;5.58;100.00
21086;BME280;34247;50.064;19.970;2023-02-12T01:53:49;100558.97;;;5.59;100.00
21086;BME280;34247;50.064;19.970;2023-02-12T01:54:58;100559.88;;;5.58;100.00
21086;BME280;34247;50.064;19.970;2023-02-12T01:56:03;100557.16;;;5.61;100.00
21086;BME280;34247;50.064;19.970;2023-02-12T01:57:13;100556.25;;;5.62;100.00
21086;BME280;34247;50.064;19.970;2023-02-12T01:58:19;100560.81;;;5.56;100.00
21086;BME280;34247;50.064;19.970;2023-02-12T01:59:25;100560.75;;;5.59;100.00
21086;BME280;34247;50.064;19.970;2023-02-12T02:00:31;100564.25;;;5.59;100.00
21086;BME280;34247;50.064;19.970;2023-02-12T02:01:40;100566.78;;;5.62;100.00
21086;BME280;34247;50.064;19.970;2023-02-12T02:03:01;100565.00;;;5.63;100.00
21086;BME280;34247;50.064;19.970;2023-02-12T02:04:35;100565.16;;;5.58;100.00
21086;BME280;34247;50.064;19.970;2023-02-12T02:06:10;100576.34;;;5.65;100.00
21086;BME280;34247;50.064;19.970;2023-02-12T02:07:23;100579.13;;;5.60;100.00
21086;BME280;34247;50.064;19.970;2023-02-12T02:08:30;100571.16;;;5.63;100.00
21086;BME280;34247;50.064;19.970;2023-02-12T02:09:38;100578.19;;;5.63;100.00
21086;BME280;34247;50.064;19.970;2023-02-12T02:10:43;100578.13;;;5.66;100.00
21086;BME280;34247;50.064;19.970;2023-02-12T02:11:50;100585.06;;;5.68;100.00
21086;BME280;34247;50.064;19.970;2023-02-12T02:13:17;100575.47;;;5.66;100.00
21086;BME280;34247;50.064;19.970;2023-02-12T02:14:45;100582.47;;;5.67;100.00
21086;BME280;34247;50.064;19.970;2023-02-12T02:16:20;100582.47;;;5.67;100.00
21086;BME280;34247;50.064;19.970;2023-02-12T02:18:59;100579.75;;;5.70;100.00
21086;BME280;34247;50.064;19.970;2023-02-12T02:22:01;100592.06;;;5.69;100.00
21086;BME280;34247;50.064;19.970;2023-02-12T02:26:53;100602.69;;;5.66;100.00
21086;BME280;34247;50.064;19.970;2023-02-12T02:33:35;100606.94;;;5.70;100.00
21086;BME280;34247;50.064;19.970;2023-02-12T02:35:02;100613.94;;;5.73;100.00
21086;BME280;34247;50.064;19.970;2023-02-12T02:36:57;100616.47;;;5.76;100.00
21086;BME280;34247;50.064;19.970;2023-02-12T02:39:54;100627.13;;;5.71;100.00
21086;BME280;34247;50.064;19.970;2023-02-12T02:41:18;100638.47;;;5.75;100.00
21086;BME280;34247;50.064;19.970;2023-02-12T02:42:36;100643.78;;;5.72;100.00
21086;BME280;34247;50.064;19.970;2023-02-12T02:43:50;100637.53;;;5.76;100.00
21086;BME280;34247;50.064;19.970;2023-02-12T02:46:46;100643.47;;;5.84;100.00
21086;BME280;34247;50.064;19.970;2023-02-12T02:48:02;100645.19;;;5.87;100.00
21086;BME280;34247;50.064;19.970;2023-02-12T02:49:36;100648.66;;;5.87;100.00
21086;BME280;34247;50.064;19.970;2023-02-12T02:50:52;100643.41;;;5.87;100.00
21086;BME280;34247;50.064;19.970;2023-02-12T02:52:08;100647.88;;;5.84;100.00
21086;BME280;34247;50.064;19.970;2023-02-12T02:53:31;100645.13;;;5.88;100.00
21086;BME280;34247;50.064;19.970;2023-02-12T02:54:53;100651.16;;;5.93;100.00
21086;BME280;34247;50.064;19.970;2023-02-12T02:56:05;100651.13;;;5.95;100.00
21086;BME280;34247;50.064;19.970;2023-02-12T02:57:21;100645.75;;;5.98;100.00
21086;BME280;34247;50.064;19.970;2023-02-12T02:58:36;100642.31;;;5.96;100.00
21086;BME280;34247;50.064;19.970;2023-02-12T02:59:55;100650.94;;;6.01;100.00
21086;BME280;34247;50.064;19.970;2023-02-12T17:08:15;101339.94;;;4.72;74.63
21086;BME280;34247;50.064;19.970;2023-02-12T17:09:55;101331.97;;;4.77;74.20
21086;BME280;34247;50.064;19.970;2023-02-12T17:11:35;101336.38;;;4.76;74.19
21086;BME280;34247;50.064;19.970;2023-02-12T17:13:15;101337.25;;;4.78;73.91
21086;BME280;34247;50.064;19.970;2023-02-12T17:14:54;101335.47;;;4.79;73.88
21086;BME280;34247;50.064;19.970;2023-02-12T17:16:34;101331.16;;;4.73;74.57
21086;BME280;34247;50.064;19.970;2023-02-12T17:18:13;101337.25;;;4.78;74.26
21086;BME280;34247;50.064;19.970;2023-02-12T17:19:52;101339.84;;;4.80;73.95
21086;BME280;34247;50.064;19.970;2023-02-12T17:21:35;101344.25;;;4.79;74.07
21086;BME280;34247;50.064;19.970;2023-02-12T17:23:18;101343.41;;;4.76;74.33
21086;BME280;34247;50.064;19.970;2023-02-12T17:24:57;101349.50;;;4.78;74.18
21086;BME280;34247;50.064;19.970;2023-02-12T17:26:36;101350.41;;;4.77;74.07
21086;BME280;34247;50.064;19.970;2023-02-12T17:28:16;101350.41;;;4.77;74.19
21086;BME280;34247;50.064;19.970;2023-02-12T17:29:55;101346.91;;;4.75;74.20
21086;BME280;34247;50.064;19.970;2023-02-12T17:31:34;101351.28;;;4.76;74.07
21086;BME280;34247;50.064;19.970;2023-02-12T17:33:15;101345.19;;;4.74;74.36
21086;BME280;34247;50.064;19.970;2023-02-12T17:35:09;101345.19;;;4.74;74.46
21086;BME280;34247;50.064;19.970;2023-02-12T17:36:53;101348.72;;;4.73;74.43
21086;BME280;34247;50.064;19.970;2023-02-12T17:38:46;101341.69;;;4.70;74.63
21086;BME280;34247;50.064;19.970;2023-02-12T17:40:44;101341.72;;;4.68;74.76
21086;BME280;34247;50.064;19.970;2023-02-12T17:42:32;101329.50;;;4.64;74.73
21086;BME280;34247;50.064;19.970;2023-02-12T17:44:33;101333.91;;;4.64;74.93
21086;BME280;34247;50.064;19.970;2023-02-12T17:46:31;101336.56;;;4.61;75.40
21086;BME280;34247;50.064;19.970;2023-02-12T17:48:29;101330.44;;;4.59;75.09
21086;BME280;34247;50.064;19.970;2023-02-12T17:50:27;101331.38;;;4.53;75.31
21086;BME280;34247;50.064;19.970;2023-02-12T17:52:25;101337.50;;;4.54;75.53
21086;BME280;34247;50.064;19.970;2023-02-12T17:54:28;101340.13;;;4.54;75.32
21086;BME280;34247;50.064;19.970;2023-02-12T17:56:27;101332.31;;;4.49;75.79
21086;BME280;34247;50.064;19.970;2023-02-12T17:58:24;101329.69;;;4.46;75.86
21086;BME280;34247;50.064;19.970;2023-02-12T18:00:23;101331.44;;;4.47;75.85
21086;BME280;34247;50.064;19.970;2023-02-12T18:02:22;101327.06;;;4.46;75.93
21086;BME280;34247;50.064;19.970;2023-02-12T18:04:20;101332.34;;;4.46;75.99
21086;BME280;34247;50.064;19.970;2023-02-12T18:06:28;101327.09;;;4.45;76.18
21086;BME280;34247;50.064;19.970;2023-02-12T18:08:26;101328.88;;;4.41;76.49
21086;BME280;34247;50.064;19.970;2023-02-12T18:10:31;101340.25;;;4.43;76.21
21086;BME280;34247;50.064;19.970;2023-02-12T18:12:31;101329.75;;;4.40;76.40
21086;BME280;34247;50.064;19.970;2023-02-12T18:14:30;101342.88;;;4.41;76.27
21086;BME280;34247;50.064;19.970;2023-02-12T18:16:33;101336.81;;;4.38;76.44
21086;BME280;34247;50.064;19.970;2023-02-12T18:18:39;101340.34;;;4.34;76.74
21086;BME280;34247;50.064;19.970;2023-02-12T18:20:39;101341.22;;;4.34;76.88
21086;BME280;34247;50.064;19.970;2023-02-12T18:22:38;101329.88;;;4.31;77.11
21086;BME280;34247;50.064;19.970;2023-02-12T18:24:36;101335.13;;;4.31;77.20
21086;BME280;34247;50.064;19.970;2023-02-12T18:26:34;101343.00;;;4.31;77.22
21086;BME280;34247;50.064;19.970;2023-02-12T18:28:33;101340.34;;;4.32;77.21
21086;BME280;34247;50.064;19.970;2023-02-12T18:30:33;101338.59;;;4.33;77.00
21086;BME280;34247;50.064;19.970;2023-02-12T18:32:32;101343.94;;;4.28;77.10
21086;BME280;34247;50.064;19.970;2023-02-12T18:34:32;101334.25;;;4.27;77.38
21086;BME280;34247;50.064;19.970;2023-02-12T18:36:31;101338.66;;;4.27;77.40
21086;BME280;34247;50.064;19.970;2023-02-12T18:38:31;101333.41;;;4.27;77.49
21086;BME280;34247;50.064;19.970;2023-02-12T18:40:30;101333.44;;;4.24;77.52
21086;BME280;34247;50.064;19.970;2023-02-12T18:42:29;101335.22;;;4.22;77.70
21086;BME280;34247;50.064;19.970;2023-02-12T18:44:27;101333.47;;;4.21;77.68
21086;BME280;34247;50.064;19.970;2023-02-12T18:46:34;101322.97;;;4.19;77.90
21086;BME280;34247;50.064;19.970;2023-02-12T18:48:35;101334.38;;;4.18;77.70
21086;BME280;34247;50.064;19.970;2023-02-12T18:50:37;101336.13;;;4.18;77.76
21086;BME280;34247;50.064;19.970;2023-02-12T18:52:38;101330.91;;;4.14;77.86
21086;BME280;34247;50.064;19.970;2023-02-12T18:54:37;101325.66;;;4.11;78.30
21086;BME280;34247;50.064;19.970;2023-02-12T18:56:41;101326.56;;;4.10;78.31
21086;BME280;34247;50.064;19.970;2023-02-12T18:58:40;101320.47;;;4.07;78.61
21086;BME280;34247;50.064;19.970;2023-02-12T19:00:41;101317.81;;;4.05;78.73
21086;BME280;34247;50.064;19.970;2023-02-12T19:02:39;101323.09;;;4.05;79.03
21086;BME280;34247;50.064;19.970;2023-02-12T19:04:38;101321.38;;;4.03;78.96
21086;BME280;34247;50.064;19.970;2023-02-12T19:06:51;101325.72;;;4.04;79.07
21086;BME280;34247;50.064;19.970;2023-02-12T19:09:01;101324.00;;;4.06;79.39
21086;BME280;34247;50.064;19.970;2023-02-12T19:10:59;101322.22;;;4.06;79.32
21086;BME280;34247;50.064;19.970;2023-02-12T19:13:01;101316.06;;;4.09;79.40
21086;BME280;34247;50.064;19.970;2023-02-12T19:14:59;101321.28;;;4.10;79.41
21086;BME280;34247;50.064;19.970;2023-02-12T19:16:58;101322.16;;;4.11;79.60
21086;BME280;34247;50.064;19.970;2023-02-12T19:19:00;101323.03;;;4.14;79.36
21086;BME280;34247;50.064;19.970;2023-02-12T19:20:59;101324.78;;;4.14;79.59
21086;BME280;34247;50.064;19.970;2023-02-12T19:22:59;101329.16;;;4.15;79.61
21086;BME280;34247;50.064;19.970;2023-02-12T19:24:57;101329.16;;;4.13;79.71
21086;BME280;34247;50.064;19.970;2023-02-12T19:26:55;101328.28;;;4.14;79.86
21086;BME280;34247;50.064;19.970;2023-02-12T19:28:55;101323.03;;;4.14;80.04
21086;BME280;34247;50.064;19.970;2023-02-12T19:30:57;101319.50;;;4.15;80.05
21086;BME280;34247;50.064;19.970;2023-02-12T19:32:56;101323.88;;;4.17;80.12
21086;BME280;34247;50.064;19.970;2023-02-12T19:34:55;101312.50;;;4.14;80.46
21086;BME280;34247;50.064;19.970;2023-02-12T19:36:53;101315.09;;;4.18;79.93
21086;BME280;34247;50.064;19.970;2023-02-12T19:38:51;101303.72;;;4.15;80.48
21086;BME280;34247;50.064;19.970;2023-02-12T19:40:50;101311.56;;;4.19;80.26
21086;BME280;34247;50.064;19.970;2023-02-12T19:42:50;101296.69;;;4.18;80.34
21086;BME280;34247;50.064;19.970;2023-02-12T19:44:48;101301.09;;;4.15;80.52
21086;BME280;34247;50.064;19.970;2023-02-12T19:46:37;101309.88;;;4.14;80.65
21086;BME280;34247;50.064;19.970;2023-02-12T19:48:19;101305.50;;;4.12;80.54
21086;BME280;34247;50.064;19.970;2023-02-12T19:50:22;101309.88;;;4.11;80.34
21086;BME280;34247;50.064;19.970;2023-02-12T19:52:20;101310.78;;;4.10;80.44
21086;BME280;34247;50.064;19.970;2023-02-12T19:54:21;101305.56;;;4.07;80.79
21086;BME280;34247;50.064;19.970;2023-02-12T19:56:21;101313.44;;;4.09;81.05
21086;BME280;34247;50.064;19.970;2023-02-12T19:58:20;101316.06;;;4.09;80.98
21086;BME280;34247;50.064;19.970;2023-02-12T20:00:37;101310.81;;;4.07;80.86
21086;BME280;34247;50.064;19.970;2023-02-12T20:02:35;101309.94;;;4.08;81.17
21086;BME280;34247;50.064;19.970;2023-02-12T20:04:33;101307.31;;;4.08;81.45
21086;BME280;34247;50.064;19.970;2023-02-12T20:06:35;101312.56;;;4.08;81.51
21086;BME280;34247;50.064;19.970;2023-02-12T20:08:34;101311.66;;;4.09;81.44
21086;BME280;34247;50.064;19.970;2023-02-12T20:10:32;101314.31;;;4.09;81.58
21086;BME280;34247;50.064;19.970;2023-02-12T20:12:31;101321.28;;;4.12;81.59
21086;BME280;34247;50.064;19.970;2023-02-12T20:14:29;101316.00;;;4.12;81.38
21086;BME280;34247;50.064;19.970;2023-02-12T20:16:30;101316.03;;;4.13;81.79
21086;BME280;34247;50.064;19.970;2023-02-12T20:18:28;101310.88;;;4.01;82.46
21086;BME280;34247;50.064;19.970;2023-02-12T20:20:26;101314.41;;;3.99;83.66
21086;BME280;34247;50.064;19.970;2023-02-12T20:22:24;101322.22;;;4.05;83.46
21086;BME280;34247;50.064;19.970;2023-02-12T20:24:27;101326.56;;;4.10;82.96
21086;BME280;34247;50.064;19.970;2023-02-12T20:26:27;101314.31;;;4.09;83.00
21086;BME280;34247;50.064;19.970;2023-02-12T20:28:25;101313.44;;;4.09;82.98
21086;BME280;34247;50.064;19.970;2023-02-12T20:30:24;101316.09;;;4.07;82.61
21086;BME280;34247;50.064;19.970;2023-02-12T20:32:22;101316.03;;;4.13;82.67
21086;BME280;34247;50.064;19.970;2023-02-12T20:34:21;101320.41;;;4.14;82.31
21086;BME280;34247;50.064;19.970;2023-02-12T20:36:21;101324.78;;;4.14;82.41
21086;BME280;34247;50.064;19.970;2023-02-12T20:38:19;101311.63;;;4.14;82.48
21086;BME280;34247;50.064;19.970;2023-02-12T20:40:17;101318.66;;;4.13;82.20
21086;BME280;34247;50.064;19.970;2023-02-12T20:42:16;101321.25;;;4.15;82.33
21086;BME280;34247;50.064;19.970;2023-02-12T20:44:19;101313.41;;;4.13;82.08
21086;BME280;34247;50.064;19.970;2023-02-12T20:46:22;101316.91;;;4.11;82.23
21086;BME280;34247;50.064;19.970;2023-02-12T20:48:28;101315.22;;;4.07;82.17
21086;BME280;34247;50.064;19.970;2023-02-12T20:50:29;101322.22;;;4.06;82.04
21086;BME280;34247;50.064;19.970;2023-02-12T20:52:28;101310.84;;;4.06;82.07
21086;BME280;34247;50.064;19.970;2023-02-12T20:54:27;101310.84;;;4.04;82.20
21086;BME280;34247;50.064;19.970;2023-02-12T20:56:30;101322.22;;;4.05;82.11
21086;BME280;34247;50.064;19.970;2023-02-12T20:58:30;101311.78;;;4.00;82.47
21086;BME280;34247;50.064;19.970;2023-02-12T21:00:32;101312.66;;;3.99;82.78
21086;BME280;34247;50.064;19.970;2023-02-12T21:02:31;101314.41;;;3.97;82.80
21086;BME280;34247;50.064;19.970;2023-02-12T21:04:40;101315.28;;;3.96;82.50
21086;BME280;34247;50.064;19.970;2023-02-12T21:06:41;101307.44;;;3.93;82.91
21086;BME280;34247;50.064;19.970;2023-02-12T21:08:41;101309.22;;;3.93;82.83
21086;BME280;34247;50.064;19.970;2023-02-12T21:10:46;101314.47;;;3.91;83.15
21086;BME280;34247;50.064;19.970;2023-02-12T21:12:45;101317.97;;;3.90;83.04
21086;BME280;34247;50.064;19.970;2023-02-12T21:14:43;101310.97;;;3.91;83.26
21086;BME280;34247;50.064;19.970;2023-02-12T21:16:42;101309.22;;;3.91;83.12
21086;BME280;34247;50.064;19.970;2023-02-12T21:18:41;101314.47;;;3.91;83.34
21086;BME280;34247;50.064;19.970;2023-02-12T21:20:41;101309.22;;;3.91;83.40
21086;BME280;34247;50.064;19.970;2023-02-12T21:22:46;101315.31;;;3.95;83.41
21086;BME280;34247;50.064;19.970;2023-02-12T21:24:45;101312.69;;;3.95;83.46
21086;BME280;34247;50.064;19.970;2023-02-12T21:26:45;101319.69;;;3.94;83.40
21086;BME280;34247;50.064;19.970;2023-02-12T21:28:45;101321.44;;;3.95;83.63
21086;BME280;34247;50.064;19.970;2023-02-12T21:30:44;101326.66;;;3.98;83.80
21086;BME280;34247;50.064;19.970;2023-02-12T21:32:44;101320.53;;;3.96;83.74
21086;BME280;34247;50.064;19.970;2023-02-12T21:34:43;101323.19;;;3.96;83.80
21086;BME280;34247;50.064;19.970;2023-02-12T21:36:44;101321.41;;;3.98;83.90
21086;BME280;34247;50.064;19.970;2023-02-12T21:38:50;101328.41;;;3.98;83.85
21086;BME280;34247;50.064;19.970;2023-02-12T21:40:52;101327.56;;;3.96;84.13
21086;BME280;34247;50.064;19.970;2023-02-12T21:42:50;101328.44;;;3.96;84.30
21086;BME280;34247;50.064;19.970;2023-02-12T21:44:58;101324.94;;;3.94;84.54
21086;BME280;34247;50.064;19.970;2023-02-12T21:46:57;101333.69;;;3.96;84.43
21086;BME280;34247;50.064;19.970;2023-02-12T21:48:59;101324.94;;;3.99;84.07
21086;BME280;34247;50.064;19.970;2023-02-12T21:50:58;101327.50;;;4.02;84.37
21086;BME280;34247;50.064;19.970;2023-02-12T21:52:57;101326.59;;;4.04;84.16
21086;BME280;34247;50.064;19.970;2023-02-12T21:54:55;101323.09;;;4.05;84.17
21086;BME280;34247;50.064;19.970;2023-02-12T21:56:55;101325.72;;;4.07;83.80
21086;BME280;34247;50.064;19.970;2023-02-12T21:58:55;101318.69;;;4.09;83.67
21086;BME280;34247;50.064;19.970;2023-02-12T22:00:56;101327.47;;;4.05;84.16
21086;BME280;34247;50.064;19.970;2023-02-12T22:02:53;101328.34;;;4.08;84.00
21086;BME280;34247;50.064;19.970;2023-02-12T22:04:54;101328.28;;;4.11;83.99
21086;BME280;34247;50.064;19.970;2023-02-12T22:06:52;101330.91;;;4.11;84.16
21086;BME280;34247;50.064;19.970;2023-02-12T22:08:53;101336.19;;;4.13;83.96
21086;BME280;34247;50.064;19.970;2023-02-12T22:10:40;101337.03;;;4.12;84.13
21086;BME280;34247;50.064;19.970;2023-02-12T22:12:25;101340.59;;;4.09;84.44
21086;BME280;34247;50.064;19.970;2023-02-12T22:14:16;101340.56;;;4.14;84.13
21086;BME280;34247;50.064;19.970;2023-02-12T22:16:30;101344.91;;;4.15;84.45
21086;BME280;34247;50.064;19.970;2023-02-12T22:18:20;101339.59;;;4.20;84.23
21086;BME280;34247;50.064;19.970;2023-02-12T22:20:27;101348.34;;;4.23;84.11
21086;BME280;34247;50.064;19.970;2023-02-12T22:22:35;101343.06;;;4.25;84.02
21086;BME280;34247;50.064;19.970;2023-02-12T22:24:33;101338.69;;;4.24;84.11
21086;BME280;34247;50.064;19.970;2023-02-12T22:26:33;101340.47;;;4.22;84.59
21086;BME280;34247;50.064;19.970;2023-02-12T22:28:33;101335.22;;;4.22;84.38
21086;BME280;34247;50.064;19.970;2023-02-12T22:30:40;101335.19;;;4.25;84.20
21086;BME280;34247;50.064;19.970;2023-02-12T22:32:39;101340.44;;;4.28;84.15
21086;BME280;34247;50.064;19.970;2023-02-12T22:34:38;101342.16;;;4.29;83.96
21086;BME280;34247;50.064;19.970;2023-02-12T22:36:38;101336.03;;;4.28;84.16
21086;BME280;34247;50.064;19.970;2023-02-12T22:38:39;101346.53;;;4.30;83.94
21086;BME280;34247;50.064;19.970;2023-02-12T22:40:37;101346.53;;;4.30;83.60
21086;BME280;34247;50.064;19.970;2023-02-12T22:42:35;101344.78;;;4.29;83.76